EST,Max TemperatureF,Mean TemperatureF,Min TemperatureF,Max Dew PointF,MeanDew PointF,Min DewpointF,Max Humidity, Mean Humidity, Min Humidity, Max Sea Level PressureIn, Mean Sea Level PressureIn, Min Sea Level PressureIn, Max VisibilityMiles, Mean VisibilityMiles, Min VisibilityMiles, Max Wind SpeedMPH, Mean Wind SpeedMPH, Max Gust SpeedMPH,PrecipitationIn, CloudCover, Events, WindDirDegrees
2013-11-1,87,76,66,72,67,59,100,78,38,30.04,29.96,29.90,10,10,8,17,3,20,0.00,1,,204
2013-11-2,69,66,64,70,64,59,100,88,68,30.00,29.92,29.85,10,10,8,9,2,,0.00,1,Rain,261
2013-11-3,75,67,59,63,52,36,100,68,24,30.13,30.05,29.99,10,10,10,15,5,20,0.00,1,,6
2013-11-4,78,69,60,66,57,52,100,70,42,30.19,30.14,30.11,10,10,8,21,9,25,0.00,5,,26
2013-11-5,80,72,64,70,65,63,100,83,54,30.17,30.13,30.09,10,10,7,131,9,29,0.00,4,,47
2013-11-6,84,75,66,66,65,61,100,77,45,30.13,30.08,30.04,10,10,10,12,7,,0.00,1,,48
2013-11-7,80,71,62,68,64,63,100,82,54,30.08,30.03,29.99,10,10,0,12,2,,0.00,1,Fog,345
2013-11-8,78,71,64,66,62,55,100,82,53,30.14,30.08,30.02,10,10,10,16,6,21,0.00,2,,26
2013-11-9,80,71,62,61,60,59,88,75,51,30.18,30.14,30.11,10,10,10,14,8,18,0.00,2,,44
2013-11-10,82,73,64,64,63,61,100,79,48,30.17,30.13,30.10,10,10,10,12,6,,0.00,1,,44
2013-11-11,82,73,64,66,64,61,100,81,51,30.19,30.13,30.09,10,10,10,9,5,,0.00,1,,52
2013-11-12,78,70,62,66,64,61,100,81,54,30.13,30.08,30.03,10,10,10,9,1,,0.00,3,Rain,333
2013-11-13,68,62,53,57,49,45,82,65,52,30.32,30.22,30.09,10,10,10,22,13,30,0.00,3,,19
2013-11-14,75,64,53,57,52,48,88,70,38,30.32,30.24,30.20,10,10,10,18,8,24,0.00,2,,47
2013-11-15,75,66,57,66,60,55,100,79,53,30.20,30.14,30.10,10,10,10,12,4,,0.00,3,Rain,59
2013-11-16,73,70,66,73,67,63,100,97,83,30.12,30.09,30.06,10,9,1,10,5,,0.21,5,Rain,104
2013-11-17,82,74,66,72,68,63,100,86,58,30.09,30.06,30.02,10,10,10,6,2,,0.00,6,,124
2013-11-18,82,73,64,72,68,64,100,86,58,30.05,29.99,29.95,10,10,8,10,2,,0.00,2,,300
2013-11-19,78,71,64,70,65,59,100,82,61,30.00,29.95,29.91,10,10,10,10,3,,0.00,4,,12
2013-11-20,82,72,62,72,67,61,100,93,58,30.12,30.05,29.99,10,10,8,14,7,18,0.00,4,Rain,44
2013-11-21,80,74,69,72,69,66,100,92,61,30.21,30.16,30.11,10,10,5,17,7,22,0.00,5,,58
2013-11-22,82,75,66,72,66,63,100,81,54,30.22,30.16,30.12,10,10,9,13,6,16,0.00,4,,56
2013-11-23,82,72,62,64,62,57,100,79,42,30.13,30.07,30.03,10,10,10,8,2,,0.00,1,,7
2013-11-24,66,63,60,66,57,52,100,82,68,30.25,30.15,30.05,10,10,10,17,6,25,0.00,3,,22
2013-11-25,73,68,62,63,55,52,94,68,50,30.26,30.18,30.10,10,10,10,17,11,24,0.00,4,,72
2013-11-26,82,73,64,73,68,63,100,88,61,30.09,29.91,29.79,10,9,2,17,7,23,0.06,3,Rain,154
2013-11-27,71,58,42,72,53,36,100,78,56,30.23,29.96,29.76,10,10,3,21,13,34,0.11,6,Rain,280
2013-11-28,64,50,37,48,41,32,88,71,52,30.36,30.29,30.23,10,10,10,13,8,21,0.00,0,,6
2013-11-29,71,61,51,54,51,48,100,76,53,30.37,30.32,30.28,10,10,10,18,10,25,0.00,2,,18
2013-11-30,73,64,55,61,58,52,100,86,60,30.33,30.25,30.19,10,10,10,16,9,20,0.00,3,,18